Time;durP1;ratioP1;P1;durP2;ratioP2;P2;SDS_P1;SDS_P2;PMS_P1;PMS_P2;Temp;Humidity;BMP_temperature;BMP_pressure;BME280_temperature;BME280_humidity;BME280_pressure;Samples;Min_cycle;Max_cycle;Signal;HPM_P1;HPM_P2
2021/11/21 00:01:00;;;;;;;27.50;17.10;;;307.60;2304.00;;;;;;4955048;29;19907;-81
2021/11/21 00:03:26;;;;;;;27.17;16.48;;;307.50;2304.00;;;;;;4955171;29;20062;-76
2021/11/21 00:05:52;;;;;;;21.65;14.23;;;307.30;2304.00;;;;;;4938382;29;20023;-81
2021/11/21 00:08:18;;;;;;;26.45;14.43;;;307.60;2304.00;;;;;;4956082;29;20038;-76
2021/11/21 00:10:46;;;;;;;24.92;13.45;;;307.70;2304.00;;;;;;4956163;28;20043;-78
2021/11/21 00:13:12;;;;;;;24.10;13.50;;;307.60;2304.00;;;;;;4956107;29;20027;-81
2021/11/21 00:15:41;;;;;;;26.48;15.82;;;307.70;2304.00;;;;;;4955944;29;20145;-77
2021/11/21 00:18:11;;;;;;;30.13;17.20;;;307.70;2304.00;;;;;;4938720;29;20036;-75
2021/11/21 00:20:42;;;;;;;33.05;18.08;;;307.80;2304.00;;;;;;4955950;29;20027;-82
2021/11/21 00:23:08;;;;;;;31.33;19.20;;;307.80;2304.00;;;;;;4938570;29;20039;-75
2021/11/21 00:25:33;;;;;;;28.77;18.05;;;307.80;2304.00;;;;;;4955894;29;20047;-75
2021/11/21 00:28:00;;;;;;;31.30;18.67;;;307.80;2304.00;;;;;;4938358;29;20503;-79
2021/11/21 00:30:26;;;;;;;33.40;19.77;;;307.80;2304.00;;;;;;4955810;29;20024;-75
2021/11/21 00:32:52;;;;;;;31.90;18.50;;;307.80;2304.00;;;;;;4938524;29;20364;-80
2021/11/21 00:35:17;;;;;;;31.73;19.05;;;307.80;2304.00;;;;;;4938306;29;20031;-76
2021/11/21 00:37:43;;;;;;;29.52;19.02;;;307.60;2304.00;;;;;;4938526;29;20110;-76
2021/11/21 00:40:12;;;;;;;30.65;19.13;;;307.50;2304.00;;;;;;4955949;29;20090;-77
2021/11/21 00:42:38;;;;;;;31.55;19.77;;;307.60;2304.00;;;;;;4938746;29;20415;-82
2021/11/21 00:45:07;;;;;;;35.65;21.90;;;307.70;2304.00;;;;;;4938338;29;20038;-75
2021/11/21 00:47:33;;;;;;;31.70;19.55;;;307.70;2304.00;;;;;;4938384;29;20406;-81
2021/11/21 00:50:04;;;;;;;32.92;19.33;;;307.60;2304.00;;;;;;4938375;29;20031;-75
2021/11/21 00:52:31;;;;;;;35.75;19.67;;;307.70;2304.00;;;;;;4955116;29;20023;-75
2021/11/21 00:55:08;;;;;;;30.70;15.10;;;307.70;2304.00;;;;;;4955681;29;20458;-76
2021/11/21 00:57:35;;;;;;;28.10;18.20;;;307.60;2304.00;;;;;;4954885;28;20031;-76
2021/11/21 01:00:00;;;;;;;30.98;17.48;;;307.60;2304.00;;;;;;4955341;29;20058;-78
2021/11/21 01:02:26;;;;;;;30.27;17.30;;;307.70;2304.00;;;;;;4955236;29;20063;-75
2021/11/21 01:04:52;;;;;;;24.17;16.13;;;307.60;2304.00;;;;;;4937987;29;20054;-76
2021/11/21 01:07:19;;;;;;;;;;;307.50;2304.00;;;;;;4955726;29;20078;-77
2021/11/21 01:09:45;;;;;;;23.13;13.95;;;307.50;2304.00;;;;;;4955301;28;20248;-82
2021/11/21 01:12:11;;;;;;;;;;;307.60;2304.00;;;;;;4938469;29;20083;-76
2021/11/21 01:14:38;;;;;;;24.27;14.77;;;307.50;2304.00;;;;;;4955334;29;19906;-75
2021/11/21 01:17:05;;;;;;;21.83;14.07;;;307.60;2304.00;;;;;;4938248;29;20130;-76
2021/11/21 01:19:31;;;;;;;21.10;12.95;;;307.50;2304.00;;;;;;4955123;29;20027;-79
2021/11/21 01:22:00;;;;;;;18.40;12.80;;;307.60;2304.00;;;;;;4937959;29;20043;-77
2021/11/21 01:24:26;;;;;;;26.02;13.88;;;307.70;2304.00;;;;;;4955058;29;20073;-83
2021/11/21 01:26:52;;;;;;;27.27;14.50;;;307.70;2304.00;;;;;;4955275;29;20027;-79
2021/11/21 01:29:18;;;;;;;24.42;14.52;;;307.70;2304.00;;;;;;4937945;29;20094;-76
2021/11/21 01:31:47;;;;;;;;;;;307.70;2304.00;;;;;;4955643;29;20361;-77
2021/11/21 01:34:14;;;;;;;22.13;13.93;;;307.60;2304.00;;;;;;4955057;29;19913;-76
2021/11/21 01:36:40;;;;;;;20.08;12.60;;;307.50;2304.00;;;;;;4954759;29;20062;-75
2021/11/21 01:39:06;;;;;;;24.23;14.23;;;307.30;2304.00;;;;;;4937977;29;20102;-75
2021/11/21 01:41:32;;;;;;;26.48;15.25;;;307.20;2304.00;;;;;;4937686;29;20130;-76
2021/11/21 01:43:57;;;;;;;;;;;307.30;2304.00;;;;;;4955556;29;20035;-82
2021/11/21 01:46:31;;;;;;;35.38;20.77;;;282.40;2278.40;;;;;;4937931;29;19947;-78
2021/11/21 01:48:57;;;;;;;44.35;23.40;;;282.40;2278.40;;;;;;4937888;29;20027;-83
2021/11/21 01:51:23;;;;;;;37.35;20.48;;;282.50;2278.40;;;;;;4954932;29;20364;-82
2021/11/21 01:53:48;;;;;;;;;;;282.40;2278.40;;;;;;4955344;29;20068;-78
2021/11/21 01:56:14;;;;;;;46.40;26.23;;;282.20;2278.40;;;;;;4954980;29;19910;-76
2021/11/21 01:58:40;;;;;;;;;;;282.00;2278.40;;;;;;4955499;29;20027;-76
2021/11/21 02:01:06;;;;;;;44.72;25.90;;;282.00;2278.40;;;;;;4937750;29;19906;-76
2021/11/21 02:03:32;;;;;;;40.60;26.17;;;281.90;2278.40;;;;;;4954913;29;20027;-75
2021/11/21 02:05:57;;;;;;;;;;;281.80;2278.40;;;;;;4938200;29;20388;-76
2021/11/21 02:08:23;;;;;;;40.97;23.27;;;281.70;2278.40;;;;;;4939329;29;19910;-76
2021/11/21 02:10:48;;;;;;;;;;;281.60;2278.40;;;;;;4958445;28;20062;-76
2021/11/21 02:13:14;;;;;;;41.53;25.80;;;256.80;2252.80;;;;;;4958392;29;19952;-81
2021/11/21 02:15:43;;;;;;;;;;;256.90;2252.80;;;;;;4941552;29;20440;-75
2021/11/21 02:18:09;;;;;;;44.65;24.92;;;281.60;2278.40;;;;;;4940834;29;20370;-76
2021/11/21 02:20:35;;;;;;;44.28;27.15;;;281.60;2278.40;;;;;;4958220;29;20030;-82
2021/11/21 02:23:03;;;;;;;44.60;27.25;;;281.60;2278.40;;;;;;4958041;29;20031;-76
2021/11/21 02:25:29;;;;;;;40.45;25.00;;;256.90;2252.80;;;;;;4940842;29;20031;-75
2021/11/21 02:27:55;;;;;;;46.45;25.92;;;256.70;2252.80;;;;;;4958180;28;20027;-77
2021/11/21 02:30:20;;;;;;;44.40;26.95;;;256.60;2252.80;;;;;;4958163;29;20110;-76
2021/11/21 02:32:47;;;;;;;;;;;256.60;2252.80;;;;;;4958454;29;20054;-76
2021/11/21 02:35:13;;;;;;;43.88;27.60;;;256.70;2252.80;;;;;;4958104;29;19913;-75
2021/11/21 02:37:40;;;;;;;47.65;28.63;;;256.70;2252.80;;;;;;4957785;29;20192;-76
2021/11/21 02:40:07;;;;;;;45.05;27.30;;;256.50;2252.80;;;;;;4940579;29;20471;-77
2021/11/21 02:42:34;;;;;;;46.13;27.95;;;256.50;2252.80;;;;;;4957558;29;20541;-76
2021/11/21 02:45:01;;;;;;;51.83;30.60;;;256.40;2252.80;;;;;;4940116;29;20031;-75
2021/11/21 02:47:33;;;;;;;51.05;30.27;;;256.30;2252.80;;;;;;4940439;29;20050;-75
2021/11/21 02:50:00;;;;;;;48.47;31.00;;;256.30;2252.80;;;;;;4940438;29;20050;-76
2021/11/21 02:52:26;;;;;;;50.25;28.98;;;256.30;2252.80;;;;;;4940333;29;20031;-76
2021/11/21 02:54:54;;;;;;;48.63;31.55;;;256.20;2252.80;;;;;;4957545;29;20106;-76
2021/11/21 02:57:21;;;;;;;54.83;32.33;;;256.10;2252.80;;;;;;4939780;29;20039;-76
2021/11/21 02:59:48;;;;;;;55.33;32.33;;;256.10;2252.80;;;;;;4940366;29;20038;-76
2021/11/21 03:02:14;;;;;;;57.15;32.08;;;256.00;2252.80;;;;;;4957467;29;20035;-78
2021/11/21 03:04:41;;;;;;;54.78;32.97;;;231.30;2252.80;;;;;;4957387;29;20427;-80
2021/11/21 03:07:09;;;;;;;53.75;30.92;;;231.30;2252.80;;;;;;4957263;29;20024;-82
2021/11/21 03:09:35;;;;;;;59.30;32.45;;;231.30;2252.80;;;;;;4957175;28;20047;-81
2021/11/21 03:12:01;;;;;;;56.03;31.40;;;256.00;2252.80;;;;;;4957426;29;20035;-76
2021/11/21 03:14:26;;;;;;;;;;;256.00;2252.80;;;;;;4940318;29;20027;-76
2021/11/21 03:16:52;;;;;;;55.22;30.48;;;256.10;2252.80;;;;;;4957084;29;19915;-75
2021/11/21 03:19:18;;;;;;;;;;;256.00;2252.80;;;;;;4939894;29;20043;-76
2021/11/21 03:21:44;;;;;;;50.63;29.63;;;256.20;2252.80;;;;;;4939921;29;19922;-77
2021/11/21 03:24:09;;;;;;;;;;;256.20;2252.80;;;;;;4957485;29;20075;-76
2021/11/21 03:26:35;;;;;;;49.08;29.40;;;256.30;2252.80;;;;;;4939837;29;19913;-80
2021/11/21 03:29:02;;;;;;;46.28;28.85;;;256.40;2252.80;;;;;;4957017;29;20019;-77
2021/11/21 03:31:30;;;;;;;46.97;28.85;;;256.30;2252.80;;;;;;4956992;29;20020;-76
2021/11/21 03:33:55;;;;;;;57.72;29.77;;;256.20;2252.80;;;;;;4956898;29;20117;-76
2021/11/21 03:36:21;;;;;;;48.55;29.83;;;256.10;2252.80;;;;;;4956532;29;20059;-76
2021/11/21 03:38:47;;;;;;;;;;;231.20;2252.80;;;;;;4940118;29;20031;-76
2021/11/21 03:41:13;;;;;;;56.30;29.73;;;231.10;2252.80;;;;;;4939538;29;20433;-75
2021/11/21 03:43:38;;;;;;;;;;;230.90;2252.80;;;;;;4939543;29;20053;-76
2021/11/21 03:46:04;;;;;;;47.50;26.98;;;230.80;2252.80;;;;;;4956563;29;19941;-83
2021/11/21 03:48:29;;;;;;;;;;;230.80;2252.80;;;;;;4957049;29;20027;-77
2021/11/21 03:50:55;;;;;;;45.40;27.20;;;230.70;2252.80;;;;;;4956753;29;20355;-82
2021/11/21 03:53:21;;;;;;;;;;;230.60;2252.80;;;;;;4956793;29;20031;-82
2021/11/21 03:55:47;;;;;;;47.95;27.25;;;230.60;2252.80;;;;;;4939027;29;20005;-76
2021/11/21 03:58:14;;;;;;;47.58;27.63;;;230.60;2252.80;;;;;;4938858;29;20023;-76
2021/11/21 04:00:45;;;;;;;48.22;27.83;;;230.60;2252.80;;;;;;4956371;29;20031;-79
2021/11/21 04:03:11;;;;;;;48.40;28.60;;;230.70;2252.80;;;;;;4956432;29;20049;-77
2021/11/21 04:05:37;;;;;;;55.78;28.70;;;230.70;2252.80;;;;;;4956394;29;20460;-82
2021/11/21 04:08:02;;;;;;;;;;;230.70;2252.80;;;;;;4956981;28;20081;-76
2021/11/21 04:10:30;;;;;;;48.22;28.15;;;230.80;2252.80;;;;;;4939017;29;19918;-83
2021/11/21 04:12:57;;;;;;;44.08;27.63;;;230.80;2252.80;;;;;;4939522;29;20047;-83
2021/11/21 04:15:22;;;;;;;;;;;230.90;2252.80;;;;;;4939895;29;20138;-77
2021/11/21 04:17:48;;;;;;;47.13;26.02;;;230.90;2252.80;;;;;;4956171;29;19915;-76
2021/11/21 04:20:13;;;;;;;;;;;231.00;2252.80;;;;;;4939646;29;20031;-83
2021/11/21 04:22:40;;;;;;;41.92;24.98;;;231.10;2252.80;;;;;;4956047;29;19914;-75
2021/11/21 04:25:06;;;;;;;41.63;25.48;;;231.30;2252.80;;;;;;4956138;29;20106;-78
2021/11/21 04:27:33;;;;;;;49.60;26.75;;;231.30;2252.80;;;;;;4939118;29;20035;-76
2021/11/21 04:29:59;;;;;;;46.55;28.42;;;231.30;2252.80;;;;;;4956290;29;20024;-76
2021/11/21 04:32:24;;;;;;;42.50;26.58;;;231.20;2252.80;;;;;;4955343;28;20058;-81
2021/11/21 04:34:51;;;;;;;;;;;256.00;2252.80;;;;;;4939229;29;20036;-76
2021/11/21 04:37:17;;;;;;;43.30;25.80;;;231.30;2252.80;;;;;;4955564;29;19910;-82
2021/11/21 04:39:43;;;;;;;39.50;24.35;;;231.20;2252.80;;;;;;4938906;29;20055;-76
2021/11/21 04:42:09;;;;;;;43.83;26.00;;;231.30;2252.80;;;;;;4956229;29;20121;-80
2021/11/21 04:44:35;;;;;;;;;;;231.30;2252.80;;;;;;4938817;29;20114;-77
2021/11/21 04:47:01;;;;;;;39.58;23.33;;;256.00;2252.80;;;;;;4938887;29;19911;-76
2021/11/21 04:49:26;;;;;;;41.13;24.60;;;256.10;2252.80;;;;;;4956082;29;20027;-83
2021/11/21 04:51:52;;;;;;;;;;;231.30;2252.80;;;;;;4956141;29;20030;-82
2021/11/21 04:54:20;;;;;;;41.92;25.08;;;231.30;2252.80;;;;;;4938981;29;19914;-76
2021/11/21 04:56:47;;;;;;;39.28;24.15;;;256.00;2252.80;;;;;;4938935;29;20031;-76
2021/11/21 04:59:14;;;;;;;43.53;25.67;;;256.10;2252.80;;;;;;4938503;29;20030;-83
2021/11/21 05:01:41;;;;;;;41.63;25.08;;;256.10;2252.80;;;;;;4938709;29;20035;-76
2021/11/21 05:04:07;;;;;;;42.28;25.85;;;256.10;2252.80;;;;;;4938689;29;20023;-83
2021/11/21 05:06:33;;;;;;;38.10;23.13;;;256.20;2252.80;;;;;;4955511;29;20039;-82
2021/11/21 05:08:59;;;;;;;41.10;22.83;;;256.30;2252.80;;;;;;4938571;29;20078;-83
2021/11/21 05:11:24;;;;;;;41.70;23.95;;;256.20;2252.80;;;;;;4955568;29;20063;-82
2021/11/21 05:13:50;;;;;;;;;;;256.20;2252.80;;;;;;4938848;29;20027;-82
2021/11/21 05:16:16;;;;;;;38.35;23.15;;;256.20;2252.80;;;;;;4955448;28;20362;-82
2021/11/21 05:18:41;;;;;;;;;;;256.10;2252.80;;;;;;4956124;29;20065;-76
2021/11/21 05:21:07;;;;;;;39.25;22.38;;;256.00;2252.80;;;;;;4938228;29;19906;-82
2021/11/21 05:23:33;;;;;;;;;;;256.00;2252.80;;;;;;4955741;29;20031;-76
2021/11/21 05:25:58;;;;;;;39.13;23.52;;;256.10;2252.80;;;;;;4938438;29;20375;-76
2021/11/21 05:28:24;;;;;;;40.30;25.08;;;256.20;2252.80;;;;;;4955624;29;20110;-80
2021/11/21 05:30:50;;;;;;;;;;;256.20;2252.80;;;;;;4956057;29;20023;-77
2021/11/21 05:33:17;;;;;;;35.90;25.03;;;256.30;2252.80;;;;;;4938325;29;19906;-76
2021/11/21 05:35:44;;;;;;;42.70;23.25;;;256.30;2252.80;;;;;;4938491;29;20023;-76
2021/11/21 05:38:09;;;;;;;40.65;25.95;;;256.20;2252.80;;;;;;4938271;29;20051;-81
2021/11/21 05:40:35;;;;;;;41.72;25.58;;;256.30;2252.80;;;;;;4955484;29;20027;-76
2021/11/21 05:43:01;;;;;;;;;;;256.40;2252.80;;;;;;4957781;28;20031;-77
2021/11/21 05:45:27;;;;;;;39.17;24.42;;;256.50;2252.80;;;;;;4965711;29;19906;-78
2021/11/21 05:47:54;;;;;;;41.17;25.90;;;256.60;2252.80;;;;;;4965368;29;20019;-76
2021/11/21 05:50:20;;;;;;;44.92;25.95;;;256.40;2252.80;;;;;;4942089;29;20040;-77
2021/11/21 05:52:48;;;;;;;40.40;24.25;;;256.50;2252.80;;;;;;4959154;29;20046;-82
2021/11/21 05:55:17;;;;;;;37.17;25.17;;;256.50;2252.80;;;;;;4941753;29;20397;-76
2021/11/21 05:57:43;;;;;;;42.58;24.17;;;256.50;2252.80;;;;;;4941882;29;20030;-81
2021/11/21 06:00:12;;;;;;;38.00;24.67;;;256.70;2252.80;;;;;;4959011;29;20027;-76
2021/11/21 06:02:38;;;;;;;40.08;26.95;;;256.90;2252.80;;;;;;4941490;29;20051;-75
2021/11/21 06:05:05;;;;;;;44.10;26.17;;;256.70;2252.80;;;;;;4958973;29;20102;-77
2021/11/21 06:07:31;;;;;;;43.85;26.77;;;256.80;2252.80;;;;;;4941745;29;20039;-76
2021/11/21 06:09:56;;;;;;;42.05;27.17;;;256.90;2252.80;;;;;;4958552;29;20043;-76
2021/11/21 06:12:22;;;;;;;42.33;25.65;;;281.60;2278.40;;;;;;4941897;29;20464;-76
2021/11/21 06:14:48;;;;;;;;;;;281.70;2278.40;;;;;;4942230;29;20053;-82
2021/11/21 06:17:14;;;;;;;64.10;36.80;;;281.70;2278.40;;;;;;4958430;29;19910;-77
2021/11/21 06:19:40;;;;;;;46.80;26.75;;;281.70;2278.40;;;;;;4941540;29;20043;-76
2021/11/21 06:22:06;;;;;;;40.63;26.40;;;256.70;2252.80;;;;;;4941460;29;20069;-76
2021/11/21 06:24:32;;;;;;;44.60;27.10;;;256.80;2252.80;;;;;;4941104;29;20077;-81
2021/11/21 06:26:58;;;;;;;46.15;27.50;;;256.80;2252.80;;;;;;4941695;29;20019;-80
2021/11/21 06:29:24;;;;;;;45.38;28.13;;;256.70;2252.80;;;;;;4958341;29;20101;-77
2021/11/21 06:31:50;;;;;;;;;;;256.70;2252.80;;;;;;4958687;29;20019;-79
2021/11/21 06:34:17;;;;;;;57.88;32.80;;;256.60;2252.80;;;;;;4940707;29;19906;-84
2021/11/21 06:36:43;;;;;;;52.40;33.00;;;256.60;2252.80;;;;;;4957467;29;20059;-76
2021/11/21 06:39:10;;;;;;;57.92;32.97;;;256.60;2252.80;;;;;;4939819;29;20031;-76
2021/11/21 06:41:37;;;;;;;58.17;34.35;;;256.60;2252.80;;;;;;4940033;29;20118;-77
2021/11/21 06:44:04;;;;;;;50.90;32.25;;;256.60;2252.80;;;;;;4939886;29;20047;-79
2021/11/21 06:46:31;;;;;;;63.67;35.25;;;256.60;2252.80;;;;;;4939993;29;20027;-84
2021/11/21 06:48:57;;;;;;;66.65;38.53;;;256.50;2252.80;;;;;;4957843;29;20023;-83
2021/11/21 06:51:24;;;;;;;59.15;35.50;;;256.40;2252.80;;;;;;4941068;29;20034;-84
2021/11/21 06:53:49;;;;;;;61.30;34.38;;;256.30;2252.80;;;;;;4957790;28;20039;-79
2021/11/21 06:56:16;;;;;;;65.53;37.92;;;256.30;2252.80;;;;;;4940647;29;20138;-81
2021/11/21 06:58:43;;;;;;;59.60;34.88;;;256.30;2252.80;;;;;;4940746;29;20023;-82
2021/11/21 07:01:09;;;;;;;55.63;34.38;;;256.30;2252.80;;;;;;4957674;28;20058;-81
2021/11/21 07:03:35;;;;;;;51.30;32.63;;;256.30;2252.80;;;;;;4940187;29;20071;-81
2021/11/21 07:06:01;;;;;;;53.83;32.53;;;256.30;2252.80;;;;;;4957656;29;20050;-80
2021/11/21 07:08:26;;;;;;;;;;;256.30;2252.80;;;;;;4958230;29;20149;-80
2021/11/21 07:10:52;;;;;;;54.17;31.65;;;256.40;2252.80;;;;;;4942901;28;19922;-83
2021/11/21 07:13:20;;;;;;;;;;;256.30;2252.80;;;;;;4957689;29;20561;-80
2021/11/21 07:15:47;;;;;;;55.53;32.42;;;256.30;2252.80;;;;;;4940181;29;20359;-81
2021/11/21 07:18:13;;;;;;;53.90;34.25;;;256.20;2252.80;;;;;;4957787;28;20062;-78
2021/11/21 07:20:38;;;;;;;;;;;256.30;2252.80;;;;;;4977259;28;20034;-81
2021/11/21 07:23:05;;;;;;;53.90;33.95;;;256.30;2252.80;;;;;;4976630;28;19970;-84
2021/11/21 07:25:31;;;;;;;47.22;30.23;;;256.30;2252.80;;;;;;4959037;28;20106;-77
2021/11/21 07:27:58;;;;;;;52.90;31.20;;;256.30;2252.80;;;;;;4944707;29;20504;-82
2021/11/21 07:30:25;;;;;;;48.00;29.95;;;256.70;2252.80;;;;;;4940020;29;20035;-83
2021/11/21 07:32:53;;;;;;;51.45;32.08;;;256.40;2252.80;;;;;;4957273;29;20531;-80
2021/11/21 07:35:21;;;;;;;54.75;33.33;;;256.40;2252.80;;;;;;4957054;29;20106;-79
2021/11/21 07:37:46;;;;;;;49.10;30.50;;;256.40;2252.80;;;;;;4939569;29;20419;-77
2021/11/21 07:40:15;;;;;;;76.35;42.00;;;256.50;2252.80;;;;;;4956638;29;20027;-76
2021/11/21 07:42:42;;;;;;;99.60;47.33;;;256.50;2252.80;;;;;;4939316;29;20066;-76
2021/11/21 07:45:09;;;;;;;46.25;29.10;;;256.60;2252.80;;;;;;4961409;28;20018;-75
2021/11/21 07:47:35;;;;;;;60.58;33.65;;;256.60;2252.80;;;;;;4956396;29;20063;-76
2021/11/21 07:50:01;;;;;;;44.38;28.13;;;256.70;2252.80;;;;;;4939383;29;20035;-77
2021/11/21 07:52:27;;;;;;;;;;;256.80;2252.80;;;;;;4956954;29;20456;-77
2021/11/21 07:54:53;;;;;;;43.90;25.30;;;256.90;2252.80;;;;;;4938613;29;19917;-77
2021/11/21 07:57:19;;;;;;;46.55;28.58;;;256.90;2252.80;;;;;;4949177;28;20031;-79
2021/11/21 07:59:45;;;;;;;46.75;28.50;;;256.90;2252.80;;;;;;4971557;28;20078;-78
2021/11/21 08:02:11;;;;;;;48.70;29.27;;;256.90;2252.80;;;;;;4946620;29;20028;-78
2021/11/21 08:04:37;;;;;;;;;;;281.60;2278.40;;;;;;4938009;29;20070;-78
2021/11/21 08:07:08;;;;;;;35.83;24.10;;;281.70;2278.40;;;;;;4939024;29;20363;-78
2021/11/21 08:09:34;;;;;;;42.22;23.40;;;281.70;2278.40;;;;;;4938173;29;20055;-76
2021/11/21 08:12:00;;;;;;;36.85;23.17;;;281.80;2278.40;;;;;;4939174;29;20036;-77
2021/11/21 08:14:26;;;;;;;;;;;281.90;2278.40;;;;;;4939446;29;20126;-78
2021/11/21 08:16:51;;;;;;;37.80;22.27;;;281.90;2278.40;;;;;;4956053;29;19910;-79
2021/11/21 08:19:17;;;;;;;41.65;23.70;;;282.00;2278.40;;;;;;4956125;29;20039;-78
2021/11/21 08:21:43;;;;;;;45.58;23.98;;;282.10;2278.40;;;;;;4955871;29;20042;-79
2021/11/21 08:24:09;;;;;;;39.60;22.75;;;282.20;2278.40;;;;;;4938686;29;20042;-77
2021/11/21 08:26:36;;;;;;;;;;;282.20;2278.40;;;;;;4956278;29;20061;-78
2021/11/21 08:29:03;;;;;;;33.08;18.38;;;282.30;2278.40;;;;;;4955886;29;20422;-78
2021/11/21 08:31:29;;;;;;;39.97;24.83;;;282.30;2278.40;;;;;;4955945;29;20045;-78
2021/11/21 08:33:55;;;;;;;35.13;23.95;;;282.40;2278.40;;;;;;4956028;29;20464;-79
2021/11/21 08:36:20;;;;;;;36.70;25.15;;;282.50;2278.40;;;;;;4955819;29;20027;-77
2021/11/21 08:38:46;;;;;;;37.05;23.85;;;282.50;2278.40;;;;;;4955697;29;20027;-78
2021/11/21 08:41:12;;;;;;;65.78;37.08;;;282.50;2278.40;;;;;;4955688;29;20035;-76
2021/11/21 08:43:37;;;;;;;36.60;23.90;;;307.20;2304.00;;;;;;4945784;28;20491;-77
2021/11/21 08:46:03;;;;;;;;;;;307.20;2304.00;;;;;;4963846;28;20098;-78
2021/11/21 08:48:30;;;;;;;31.45;21.02;;;307.30;2304.00;;;;;;4960213;28;20306;-76
2021/11/21 08:50:57;;;;;;;30.98;20.40;;;307.30;2304.00;;;;;;4936284;28;20134;-79
2021/11/21 08:53:23;;;;;;;37.60;23.95;;;307.30;2304.00;;;;;;4952811;28;20078;-77
2021/11/21 08:55:49;;;;;;;33.83;21.38;;;307.40;2304.00;;;;;;4942021;28;20050;-77
2021/11/21 08:58:15;;;;;;;32.22;21.15;;;307.50;2304.00;;;;;;4938128;29;20119;-78
2021/11/21 09:00:41;;;;;;;39.15;24.13;;;307.50;2304.00;;;;;;4959214;28;20034;-76
2021/11/21 09:03:07;;;;;;;34.60;21.38;;;307.70;2304.00;;;;;;4938084;29;20043;-77
2021/11/21 09:05:32;;;;;;;;;;;307.70;2304.00;;;;;;4936302;29;20175;-78
2021/11/21 09:07:58;;;;;;;56.65;34.83;;;307.80;2304.00;;;;;;4938097;29;19906;-77
2021/11/21 09:10:26;;;;;;;36.20;24.70;;;307.70;2304.00;;;;;;4953243;28;20050;-76
2021/11/21 09:13:20;;;;;;;45.22;27.17;;;307.80;2304.00;;;;;;4934658;29;20027;-79
2021/11/21 09:15:46;;;;;;;35.60;22.85;;;307.90;2304.00;;;;;;4925531;29;20047;-75
2021/11/21 09:18:12;;;;;;;45.58;26.77;;;308.00;2304.00;;;;;;4953726;29;20020;-76
2021/11/21 09:20:39;;;;;;;38.65;22.33;;;308.10;2304.00;;;;;;4936790;29;20090;-77
2021/11/21 09:23:09;;;;;;;50.67;29.58;;;308.10;2304.00;;;;;;4952216;28;20046;-79
2021/11/21 09:25:35;;;;;;;42.55;20.85;;;332.80;2329.60;;;;;;4962695;28;20042;-79
2021/11/21 09:28:01;;;;;;;45.28;23.85;;;333.10;2329.60;;;;;;4964815;28;20038;-77
2021/11/21 09:30:27;;;;;;;31.63;19.98;;;333.10;2329.60;;;;;;4938236;29;20035;-78
2021/11/21 09:32:53;;;;;;;36.33;22.48;;;333.00;2329.60;;;;;;4952450;29;20043;-77
2021/11/21 09:35:21;;;;;;;31.30;21.92;;;333.20;2329.60;;;;;;4952323;29;20539;-79
2021/11/21 09:37:47;;;;;;;31.98;20.02;;;333.20;2329.60;;;;;;4936446;29;20071;-78
2021/11/21 09:40:14;;;;;;;43.00;23.77;;;333.20;2329.60;;;;;;4952905;29;20024;-79
2021/11/21 09:42:41;;;;;;;35.33;21.48;;;333.20;2329.60;;;;;;4949309;29;20032;-77
2021/11/21 09:45:10;;;;;;;30.63;19.05;;;333.20;2329.60;;;;;;4935503;28;20122;-76
2021/11/21 09:47:37;;;;;;;30.48;19.00;;;333.30;2329.60;;;;;;4945342;28;20044;-75
2021/11/21 09:50:11;;;;;;;32.75;20.42;;;333.30;2329.60;;;;;;4961209;28;20019;-75
2021/11/21 09:52:37;;;;;;;32.85;21.42;;;333.30;2329.60;;;;;;4962874;28;20085;-78
2021/11/21 09:55:09;;;;;;;38.88;24.38;;;333.20;2329.60;;;;;;4957940;28;20019;-76
2021/11/21 09:57:38;;;;;;;32.75;21.75;;;333.50;2329.60;;;;;;4936032;29;20050;-76
2021/11/21 10:00:08;;;;;;;31.55;20.20;;;333.60;2329.60;;;;;;4935820;29;20031;-75
2021/11/21 10:02:40;;;;;;;42.13;22.55;;;333.60;2329.60;;;;;;4952864;28;20056;-76
2021/11/21 10:05:28;;;;;;;28.65;19.30;;;333.70;2329.60;;;;;;4950599;29;20026;-76
2021/11/21 10:08:15;;;;;;;30.92;21.13;;;358.50;2329.60;;;;;;4926906;29;20039;-77
2021/11/21 10:11:08;;;;;;;31.63;20.17;;;358.40;2329.60;;;;;;4952297;28;20051;-78
2021/11/21 10:13:42;;;;;;;37.00;23.73;;;358.50;2329.60;;;;;;4892242;29;20101;-76
2021/11/21 10:16:19;;;;;;;34.58;21.90;;;358.50;2329.60;;;;;;4899976;29;20044;-77
2021/11/21 10:18:46;;;;;;;35.45;23.83;;;358.50;2329.60;;;;;;4895369;29;20505;-75
2021/11/21 10:21:13;;;;;;;34.75;23.08;;;358.50;2329.60;;;;;;4867641;29;20102;-75
2021/11/21 10:23:38;;;;;;;36.35;23.55;;;358.70;2329.60;;;;;;4905276;29;20098;-76
2021/11/21 10:26:04;;;;;;;49.83;30.63;;;358.80;2329.60;;;;;;4913784;29;20497;-80
2021/11/21 10:28:34;;;;;;;38.38;25.55;;;359.00;2329.60;;;;;;4914328;29;20047;-75
2021/11/21 10:31:16;;;;;;;35.45;23.63;;;358.90;2329.60;;;;;;4913942;29;20041;-75
2021/11/21 10:37:07;;;;;;;36.78;24.73;;;359.00;2329.60;;;;;;4888688;29;20039;-80
2021/11/21 10:39:33;;;;;;;32.30;22.42;;;359.10;2329.60;;;;;;4890359;29;20461;-79
2021/11/21 10:42:01;;;;;;;32.13;22.73;;;359.20;2329.60;;;;;;4887681;29;20047;-77
2021/11/21 10:44:53;;;;;;;38.50;23.85;;;384.10;2329.60;;;;;;4888793;29;20445;-78
2021/11/21 10:47:19;;;;;;;36.28;22.77;;;384.00;2329.60;;;;;;4885798;29;20549;-76
2021/11/21 10:49:49;;;;;;;31.00;21.15;;;384.10;2329.60;;;;;;4892169;29;20052;-80
2021/11/21 10:52:18;;;;;;;36.53;23.38;;;384.10;2329.60;;;;;;4915516;29;20111;-80
2021/11/21 10:54:57;;;;;;;33.60;21.98;;;384.00;2329.60;;;;;;4916541;29;20072;-75
2021/11/21 10:57:49;;;;;;;39.63;25.13;;;384.00;2329.60;;;;;;4917547;29;20040;-79
2021/11/21 11:00:20;;;;;;;43.33;26.48;;;384.20;2329.60;;;;;;4915326;29;20043;-86
2021/11/21 11:02:46;;;;;;;38.65;22.75;;;384.40;2329.60;;;;;;4917870;29;20047;-82
2021/11/21 11:05:20;;;;;;;38.15;25.13;;;384.40;2329.60;;;;;;4917696;29;20083;-81
2021/11/21 11:07:58;;;;;;;36.95;23.17;;;384.50;2329.60;;;;;;4917952;29;20100;-77
2021/11/21 11:10:31;;;;;;;32.38;21.45;;;384.50;2329.60;;;;;;4916314;29;20111;-79
2021/11/21 11:13:19;;;;;;;32.78;23.55;;;384.90;2329.60;;;;;;4930521;29;20035;-77
2021/11/21 11:15:46;;;;;;;36.75;21.17;;;384.90;2329.60;;;;;;4957539;29;20058;-76
2021/11/21 11:18:14;;;;;;;29.23;18.17;;;384.70;2329.60;;;;;;4957259;29;20063;-76
2021/11/21 11:20:47;;;;;;;36.45;20.95;;;384.70;2329.60;;;;;;4957396;29;20027;-76
2021/11/21 11:23:15;;;;;;;34.13;20.85;;;384.80;2329.60;;;;;;4957385;29;20521;-83
2021/11/21 11:25:43;;;;;;;36.70;23.83;;;384.90;2329.60;;;;;;4957623;29;20486;-83
2021/11/21 11:28:28;;;;;;;32.63;22.30;;;384.90;2329.60;;;;;;4958204;29;20042;-81
2021/11/21 11:30:55;;;;;;;29.05;19.23;;;409.80;2355.20;;;;;;4940162;29;20028;-78
2021/11/21 11:33:23;;;;;;;32.30;22.25;;;409.80;2355.20;;;;;;4957261;29;20083;-80
2021/11/21 11:35:55;;;;;;;36.83;23.58;;;409.70;2355.20;;;;;;4937321;28;20078;-79
2021/11/21 11:38:30;;;;;;;34.20;21.08;;;409.70;2355.20;;;;;;4946478;29;20027;-84
2021/11/21 11:41:01;;;;;;;33.00;21.23;;;409.80;2355.20;;;;;;4954324;28;20102;-77
2021/11/21 11:43:30;;;;;;;31.13;21.30;;;409.80;2355.20;;;;;;4940001;29;20066;-76
2021/11/21 11:46:18;;;;;;;33.85;23.58;;;409.60;2355.20;;;;;;4956484;29;20024;-76
2021/11/21 11:48:53;;;;;;;36.65;21.38;;;409.70;2355.20;;;;;;4943008;28;20407;-76
2021/11/21 11:51:28;;;;;;;31.83;20.90;;;409.60;2355.20;;;;;;4942706;28;20027;-79
2021/11/21 11:54:24;;;;;;;35.85;22.52;;;384.70;2329.60;;;;;;4962467;28;20074;-79
2021/11/21 11:56:52;;;;;;;29.83;21.17;;;384.70;2329.60;;;;;;4881050;29;20505;-76
2021/11/21 11:59:30;;;;;;;37.05;23.85;;;384.70;2329.60;;;;;;4893526;29;20052;-76
2021/11/21 12:02:04;;;;;;;36.03;23.85;;;384.90;2329.60;;;;;;4896606;29;20132;-77
2021/11/21 12:04:29;;;;;;;40.55;21.30;;;384.70;2329.60;;;;;;4890419;29;20051;-80
2021/11/21 12:07:00;;;;;;;32.03;21.50;;;409.60;2355.20;;;;;;4889771;29;20060;-79
2021/11/21 12:09:34;;;;;;;35.67;23.27;;;384.90;2329.60;;;;;;4888015;29;20060;-78
2021/11/21 12:12:09;;;;;;;31.85;21.45;;;409.70;2355.20;;;;;;4888824;29;20068;-79
2021/11/21 12:14:39;;;;;;;37.90;23.02;;;384.90;2329.60;;;;;;4896845;29;20033;-79
2021/11/21 12:17:11;;;;;;;38.17;23.00;;;384.80;2329.60;;;;;;4881051;29;20037;-80